sensor_id;sensor_type;location;lat;lon;timestamp;P1;durP1;ratioP1;P2;durP2;ratioP2
21527;SDS011;10925;49.102;-0.370;2023-05-07T00:02:16;7.95;;;3.47;;
21527;SDS011;10925;49.102;-0.370;2023-05-07T00:04:43;10.43;;;3.95;;
21527;SDS011;10925;49.102;-0.370;2023-05-07T00:07:10;8.77;;;3.53;;
21527;SDS011;10925;49.102;-0.370;2023-05-07T00:09:37;9.45;;;4.13;;
21527;SDS011;10925;49.102;-0.370;2023-05-07T00:12:02;11.45;;;4.00;;
21527;SDS011;10925;49.102;-0.370;2023-05-07T00:14:29;10.65;;;3.95;;
21527;SDS011;10925;49.102;-0.370;2023-05-07T00:16:56;13.07;;;3.72;;
21527;SDS011;10925;49.102;-0.370;2023-05-07T00:19:23;9.40;;;4.00;;
21527;SDS011;10925;49.102;-0.370;2023-05-07T00:21:49;9.75;;;3.95;;
21527;SDS011;10925;49.102;-0.370;2023-05-07T00:24:16;9.00;;;4.20;;
21527;SDS011;10925;49.102;-0.370;2023-05-07T00:26:41;11.60;;;3.70;;
21527;SDS011;10925;49.102;-0.370;2023-05-07T00:29:08;9.07;;;3.60;;
21527;SDS011;10925;49.102;-0.370;2023-05-07T00:31:35;8.30;;;3.78;;
21527;SDS011;10925;49.102;-0.370;2023-05-07T00:34:00;9.98;;;4.13;;
21527;SDS011;10925;49.102;-0.370;2023-05-07T00:36:26;9.60;;;4.30;;
21527;SDS011;10925;49.102;-0.370;2023-05-07T00:38:53;14.02;;;4.55;;
21527;SDS011;10925;49.102;-0.370;2023-05-07T00:41:19;9.50;;;4.65;;
21527;SDS011;10925;49.102;-0.370;2023-05-07T00:43:46;9.95;;;3.90;;
21527;SDS011;10925;49.102;-0.370;2023-05-07T00:46:13;11.20;;;3.75;;
21527;SDS011;10925;49.102;-0.370;2023-05-07T00:48:41;11.93;;;4.82;;
21527;SDS011;10925;49.102;-0.370;2023-05-07T00:54:10;12.55;;;4.40;;
21527;SDS011;10925;49.102;-0.370;2023-05-07T00:56:37;8.95;;;3.85;;
21527;SDS011;10925;49.102;-0.370;2023-05-07T00:59:05;11.13;;;4.30;;
21527;SDS011;10925;49.102;-0.370;2023-05-07T01:01:32;14.68;;;4.55;;
21527;SDS011;10925;49.102;-0.370;2023-05-07T01:03:58;9.93;;;3.90;;
21527;SDS011;10925;49.102;-0.370;2023-05-07T01:06:25;10.05;;;4.03;;
21527;SDS011;10925;49.102;-0.370;2023-05-07T01:08:54;11.40;;;4.70;;
21527;SDS011;10925;49.102;-0.370;2023-05-07T01:11:23;9.68;;;4.25;;
21527;SDS011;10925;49.102;-0.370;2023-05-07T01:13:50;11.02;;;4.70;;
21527;SDS011;10925;49.102;-0.370;2023-05-07T01:16:17;11.95;;;4.60;;
21527;SDS011;10925;49.102;-0.370;2023-05-07T01:18:44;12.50;;;5.32;;
21527;SDS011;10925;49.102;-0.370;2023-05-07T01:21:11;13.27;;;5.68;;
21527;SDS011;10925;49.102;-0.370;2023-05-07T01:23:37;10.95;;;5.55;;
21527;SDS011;10925;49.102;-0.370;2023-05-07T01:26:05;12.63;;;6.20;;
21527;SDS011;10925;49.102;-0.370;2023-05-07T01:28:33;13.25;;;6.03;;
21527;SDS011;10925;49.102;-0.370;2023-05-07T01:31:01;11.98;;;5.65;;
21527;SDS011;10925;49.102;-0.370;2023-05-07T01:33:28;10.32;;;5.13;;
21527;SDS011;10925;49.102;-0.370;2023-05-07T01:35:55;12.32;;;4.60;;
21527;SDS011;10925;49.102;-0.370;2023-05-07T01:38:22;9.88;;;4.57;;
21527;SDS011;10925;49.102;-0.370;2023-05-07T01:40:50;10.70;;;4.65;;
21527;SDS011;10925;49.102;-0.370;2023-05-07T01:43:17;10.50;;;5.10;;
21527;SDS011;10925;49.102;-0.370;2023-05-07T01:45:43;15.60;;;5.07;;
21527;SDS011;10925;49.102;-0.370;2023-05-07T01:48:11;10.52;;;4.82;;
21527;SDS011;10925;49.102;-0.370;2023-05-07T01:50:39;7.68;;;4.85;;
21527;SDS011;10925;49.102;-0.370;2023-05-07T01:53:06;11.77;;;4.80;;
21527;SDS011;10925;49.102;-0.370;2023-05-07T01:55:31;8.02;;;4.40;;
21527;SDS011;10925;49.102;-0.370;2023-05-07T01:57:58;9.07;;;4.55;;
21527;SDS011;10925;49.102;-0.370;2023-05-07T02:00:25;10.48;;;4.80;;
21527;SDS011;10925;49.102;-0.370;2023-05-07T02:02:52;8.45;;;4.40;;
21527;SDS011;10925;49.102;-0.370;2023-05-07T02:07:54;10.53;;;4.40;;
21527;SDS011;10925;49.102;-0.370;2023-05-07T02:10:21;7.57;;;4.45;;
21527;SDS011;10925;49.102;-0.370;2023-05-07T02:12:48;15.68;;;5.60;;
21527;SDS011;10925;49.102;-0.370;2023-05-07T02:15:14;10.93;;;4.78;;
21527;SDS011;10925;49.102;-0.370;2023-05-07T02:20:25;11.50;;;5.32;;
21527;SDS011;10925;49.102;-0.370;2023-05-07T02:22:52;10.73;;;4.53;;
21527;SDS011;10925;49.102;-0.370;2023-05-07T02:25:19;10.68;;;4.80;;
21527;SDS011;10925;49.102;-0.370;2023-05-07T02:27:45;7.32;;;4.35;;
21527;SDS011;10925;49.102;-0.370;2023-05-07T02:30:13;9.25;;;4.65;;
21527;SDS011;10925;49.102;-0.370;2023-05-07T02:32:40;9.85;;;4.78;;
21527;SDS011;10925;49.102;-0.370;2023-05-07T02:35:07;9.00;;;4.88;;
21527;SDS011;10925;49.102;-0.370;2023-05-07T02:37:34;8.65;;;4.70;;
21527;SDS011;10925;49.102;-0.370;2023-05-07T02:40:01;9.35;;;5.32;;
21527;SDS011;10925;49.102;-0.370;2023-05-07T02:42:30;13.80;;;5.00;;
21527;SDS011;10925;49.102;-0.370;2023-05-07T02:44:57;10.18;;;4.78;;
21527;SDS011;10925;49.102;-0.370;2023-05-07T02:47:24;10.52;;;5.05;;
21527;SDS011;10925;49.102;-0.370;2023-05-07T02:49:54;12.20;;;5.13;;
21527;SDS011;10925;49.102;-0.370;2023-05-07T02:52:21;8.75;;;4.93;;
21527;SDS011;10925;49.102;-0.370;2023-05-07T02:54:47;10.85;;;4.78;;
21527;SDS011;10925;49.102;-0.370;2023-05-07T02:57:13;8.55;;;4.95;;
21527;SDS011;10925;49.102;-0.370;2023-05-07T02:59:40;10.32;;;5.15;;
21527;SDS011;10925;49.102;-0.370;2023-05-07T03:02:06;11.52;;;5.22;;
21527;SDS011;10925;49.102;-0.370;2023-05-07T03:04:33;11.13;;;5.20;;
21527;SDS011;10925;49.102;-0.370;2023-05-07T03:07:00;10.65;;;5.63;;
21527;SDS011;10925;49.102;-0.370;2023-05-07T03:09:27;13.90;;;5.57;;
21527;SDS011;10925;49.102;-0.370;2023-05-07T03:11:52;13.88;;;5.60;;
21527;SDS011;10925;49.102;-0.370;2023-05-07T03:14:19;11.77;;;5.65;;
21527;SDS011;10925;49.102;-0.370;2023-05-07T03:16:46;11.85;;;6.00;;
21527;SDS011;10925;49.102;-0.370;2023-05-07T03:19:13;11.95;;;5.95;;
21527;SDS011;10925;49.102;-0.370;2023-05-07T03:21:40;11.77;;;5.60;;
21527;SDS011;10925;49.102;-0.370;2023-05-07T03:24:07;9.10;;;6.00;;
21527;SDS011;10925;49.102;-0.370;2023-05-07T03:26:33;13.63;;;6.15;;
21527;SDS011;10925;49.102;-0.370;2023-05-07T03:29:00;13.13;;;6.03;;
21527;SDS011;10925;49.102;-0.370;2023-05-07T03:31:27;16.95;;;6.18;;
21527;SDS011;10925;49.102;-0.370;2023-05-07T03:33:55;13.55;;;6.03;;
21527;SDS011;10925;49.102;-0.370;2023-05-07T03:36:23;15.02;;;5.80;;
21527;SDS011;10925;49.102;-0.370;2023-05-07T03:38:50;12.32;;;6.60;;
21527;SDS011;10925;49.102;-0.370;2023-05-07T03:41:15;14.90;;;6.78;;
21527;SDS011;10925;49.102;-0.370;2023-05-07T03:43:41;13.32;;;6.47;;
21527;SDS011;10925;49.102;-0.370;2023-05-07T03:46:10;18.98;;;6.60;;
21527;SDS011;10925;49.102;-0.370;2023-05-07T03:48:37;14.80;;;7.68;;
21527;SDS011;10925;49.102;-0.370;2023-05-07T03:51:05;14.85;;;6.85;;
21527;SDS011;10925;49.102;-0.370;2023-05-07T03:53:32;19.92;;;7.68;;
21527;SDS011;10925;49.102;-0.370;2023-05-07T03:55:59;18.80;;;8.00;;
21527;SDS011;10925;49.102;-0.370;2023-05-07T03:58:28;15.27;;;8.80;;
21527;SDS011;10925;49.102;-0.370;2023-05-07T04:00:58;18.10;;;10.05;;
21527;SDS011;10925;49.102;-0.370;2023-05-07T04:03:24;18.23;;;9.98;;
21527;SDS011;10925;49.102;-0.370;2023-05-07T04:05:52;18.63;;;10.70;;
21527;SDS011;10925;49.102;-0.370;2023-05-07T04:08:20;18.73;;;10.38;;
21527;SDS011;10925;49.102;-0.370;2023-05-07T04:10:45;24.13;;;10.63;;
21527;SDS011;10925;49.102;-0.370;2023-05-07T04:13:12;18.60;;;9.93;;
21527;SDS011;10925;49.102;-0.370;2023-05-07T04:15:40;23.25;;;11.43;;
21527;SDS011;10925;49.102;-0.370;2023-05-07T04:18:09;19.38;;;10.95;;
21527;SDS011;10925;49.102;-0.370;2023-05-07T04:20:37;22.80;;;11.48;;
21527;SDS011;10925;49.102;-0.370;2023-05-07T04:23:04;19.75;;;10.70;;
21527;SDS011;10925;49.102;-0.370;2023-05-07T04:25:31;25.48;;;10.90;;
21527;SDS011;10925;49.102;-0.370;2023-05-07T04:27:58;19.58;;;10.48;;
21527;SDS011;10925;49.102;-0.370;2023-05-07T04:30:25;32.60;;;11.35;;
21527;SDS011;10925;49.102;-0.370;2023-05-07T04:32:52;30.95;;;11.27;;
21527;SDS011;10925;49.102;-0.370;2023-05-07T04:35:20;17.27;;;9.02;;
21527;SDS011;10925;49.102;-0.370;2023-05-07T04:37:47;19.67;;;9.57;;
21527;SDS011;10925;49.102;-0.370;2023-05-07T04:40:13;20.00;;;9.57;;
21527;SDS011;10925;49.102;-0.370;2023-05-07T04:42:38;20.55;;;9.68;;
21527;SDS011;10925;49.102;-0.370;2023-05-07T04:45:06;17.65;;;9.27;;
21527;SDS011;10925;49.102;-0.370;2023-05-07T04:47:34;21.27;;;9.55;;
21527;SDS011;10925;49.102;-0.370;2023-05-07T04:50:01;17.23;;;10.50;;
21527;SDS011;10925;49.102;-0.370;2023-05-07T04:52:28;19.15;;;9.40;;
21527;SDS011;10925;49.102;-0.370;2023-05-07T04:54:54;16.60;;;9.05;;
21527;SDS011;10925;49.102;-0.370;2023-05-07T04:57:21;20.45;;;9.43;;
21527;SDS011;10925;49.102;-0.370;2023-05-07T04:59:48;14.57;;;8.48;;
21527;SDS011;10925;49.102;-0.370;2023-05-07T05:02:14;14.88;;;8.50;;
21527;SDS011;10925;49.102;-0.370;2023-05-07T05:04:39;17.42;;;8.57;;
21527;SDS011;10925;49.102;-0.370;2023-05-07T05:07:06;14.50;;;8.88;;
21527;SDS011;10925;49.102;-0.370;2023-05-07T05:09:32;16.67;;;8.98;;
21527;SDS011;10925;49.102;-0.370;2023-05-07T05:11:57;14.18;;;9.13;;
21527;SDS011;10925;49.102;-0.370;2023-05-07T05:14:24;17.58;;;7.95;;
21527;SDS011;10925;49.102;-0.370;2023-05-07T05:16:51;17.48;;;8.40;;
21527;SDS011;10925;49.102;-0.370;2023-05-07T05:19:17;20.95;;;8.55;;
21527;SDS011;10925;49.102;-0.370;2023-05-07T05:21:42;16.33;;;8.40;;
21527;SDS011;10925;49.102;-0.370;2023-05-07T05:24:08;14.63;;;7.75;;
21527;SDS011;10925;49.102;-0.370;2023-05-07T05:26:35;13.40;;;7.80;;
21527;SDS011;10925;49.102;-0.370;2023-05-07T05:29:02;13.55;;;7.53;;
21527;SDS011;10925;49.102;-0.370;2023-05-07T05:31:30;16.30;;;7.93;;
21527;SDS011;10925;49.102;-0.370;2023-05-07T05:33:57;14.15;;;7.22;;
21527;SDS011;10925;49.102;-0.370;2023-05-07T05:36:24;14.25;;;7.90;;
21527;SDS011;10925;49.102;-0.370;2023-05-07T05:38:55;13.50;;;6.93;;
21527;SDS011;10925;49.102;-0.370;2023-05-07T05:41:20;12.52;;;6.80;;
21527;SDS011;10925;49.102;-0.370;2023-05-07T05:43:47;12.82;;;6.97;;
21527;SDS011;10925;49.102;-0.370;2023-05-07T05:46:15;12.98;;;6.35;;
21527;SDS011;10925;49.102;-0.370;2023-05-07T05:48:42;12.32;;;6.07;;
21527;SDS011;10925;49.102;-0.370;2023-05-07T05:51:10;12.40;;;6.18;;
21527;SDS011;10925;49.102;-0.370;2023-05-07T05:53:37;8.73;;;5.70;;
21527;SDS011;10925;49.102;-0.370;2023-05-07T05:56:05;13.05;;;5.53;;
21527;SDS011;10925;49.102;-0.370;2023-05-07T05:58:32;9.40;;;4.65;;
21527;SDS011;10925;49.102;-0.370;2023-05-07T06:01:01;7.20;;;4.40;;
21527;SDS011;10925;49.102;-0.370;2023-05-07T06:03:29;8.73;;;4.45;;
21527;SDS011;10925;49.102;-0.370;2023-05-07T06:05:59;6.38;;;4.28;;
21527;SDS011;10925;49.102;-0.370;2023-05-07T06:08:29;6.10;;;4.47;;
21527;SDS011;10925;49.102;-0.370;2023-05-07T06:10:54;8.07;;;4.28;;
21527;SDS011;10925;49.102;-0.370;2023-05-07T06:13:20;8.38;;;4.80;;
21527;SDS011;10925;49.102;-0.370;2023-05-07T06:15:47;9.63;;;5.18;;
21527;SDS011;10925;49.102;-0.370;2023-05-07T06:18:14;9.25;;;5.07;;
21527;SDS011;10925;49.102;-0.370;2023-05-07T06:20:41;10.05;;;5.13;;
21527;SDS011;10925;49.102;-0.370;2023-05-07T06:23:14;7.25;;;4.85;;
21527;SDS011;10925;49.102;-0.370;2023-05-07T06:25:39;7.45;;;4.70;;
21527;SDS011;10925;49.102;-0.370;2023-05-07T06:28:05;10.35;;;5.55;;
21527;SDS011;10925;49.102;-0.370;2023-05-07T06:30:34;8.70;;;6.30;;
21527;SDS011;10925;49.102;-0.370;2023-05-07T06:33:00;10.15;;;5.53;;
21527;SDS011;10925;49.102;-0.370;2023-05-07T06:35:27;9.30;;;5.22;;
21527;SDS011;10925;49.102;-0.370;2023-05-07T06:37:54;9.88;;;6.10;;
21527;SDS011;10925;49.102;-0.370;2023-05-07T06:40:24;11.07;;;5.82;;
21527;SDS011;10925;49.102;-0.370;2023-05-07T06:42:51;14.73;;;7.68;;
21527;SDS011;10925;49.102;-0.370;2023-05-07T06:45:28;13.38;;;7.03;;
21527;SDS011;10925;49.102;-0.370;2023-05-07T06:47:54;13.05;;;6.40;;
21527;SDS011;10925;49.102;-0.370;2023-05-07T06:50:22;9.98;;;6.10;;
21527;SDS011;10925;49.102;-0.370;2023-05-07T06:52:51;11.15;;;6.28;;
21527;SDS011;10925;49.102;-0.370;2023-05-07T06:55:18;10.65;;;6.03;;
21527;SDS011;10925;49.102;-0.370;2023-05-07T06:57:44;9.52;;;5.78;;
21527;SDS011;10925;49.102;-0.370;2023-05-07T07:00:12;6.82;;;5.13;;
21527;SDS011;10925;49.102;-0.370;2023-05-07T07:02:46;6.50;;;5.18;;
21527;SDS011;10925;49.102;-0.370;2023-05-07T07:05:15;6.07;;;4.72;;
21527;SDS011;10925;49.102;-0.370;2023-05-07T07:07:42;7.25;;;4.78;;
21527;SDS011;10925;49.102;-0.370;2023-05-07T07:10:09;7.00;;;5.18;;
21527;SDS011;10925;49.102;-0.370;2023-05-07T07:12:35;6.03;;;4.25;;
21527;SDS011;10925;49.102;-0.370;2023-05-07T07:15:00;7.45;;;3.83;;
21527;SDS011;10925;49.102;-0.370;2023-05-07T07:17:27;5.75;;;4.43;;
21527;SDS011;10925;49.102;-0.370;2023-05-07T07:19:55;6.00;;;4.05;;
21527;SDS011;10925;49.102;-0.370;2023-05-07T07:22:20;7.97;;;4.07;;
21527;SDS011;10925;49.102;-0.370;2023-05-07T07:24:46;5.32;;;4.20;;
21527;SDS011;10925;49.102;-0.370;2023-05-07T07:27:15;6.35;;;4.13;;
21527;SDS011;10925;49.102;-0.370;2023-05-07T07:29:42;5.53;;;4.13;;
21527;SDS011;10925;49.102;-0.370;2023-05-07T07:32:10;5.13;;;4.05;;
21527;SDS011;10925;49.102;-0.370;2023-05-07T07:34:36;5.03;;;3.90;;
21527;SDS011;10925;49.102;-0.370;2023-05-07T07:37:03;5.22;;;3.78;;
21527;SDS011;10925;49.102;-0.370;2023-05-07T07:39:34;5.20;;;3.83;;
21527;SDS011;10925;49.102;-0.370;2023-05-07T07:42:01;5.65;;;3.65;;
21527;SDS011;10925;49.102;-0.370;2023-05-07T07:44:29;6.93;;;3.70;;
21527;SDS011;10925;49.102;-0.370;2023-05-07T07:47:01;5.97;;;3.92;;
21527;SDS011;10925;49.102;-0.370;2023-05-07T07:49:27;5.00;;;3.15;;
21527;SDS011;10925;49.102;-0.370;2023-05-07T07:51:56;4.88;;;3.80;;
21527;SDS011;10925;49.102;-0.370;2023-05-07T07:54:25;4.38;;;3.45;;
21527;SDS011;10925;49.102;-0.370;2023-05-07T07:56:52;4.38;;;3.30;;
21527;SDS011;10925;49.102;-0.370;2023-05-07T07:59:19;5.03;;;3.67;;
21527;SDS011;10925;49.102;-0.370;2023-05-07T08:01:48;5.00;;;3.88;;
21527;SDS011;10925;49.102;-0.370;2023-05-07T08:04:20;4.47;;;3.63;;
21527;SDS011;10925;49.102;-0.370;2023-05-07T08:06:48;4.90;;;3.90;;
21527;SDS011;10925;49.102;-0.370;2023-05-07T08:09:14;7.28;;;3.67;;
21527;SDS011;10925;49.102;-0.370;2023-05-07T08:11:41;3.42;;;3.03;;
21527;SDS011;10925;49.102;-0.370;2023-05-07T08:14:08;4.00;;;2.95;;
21527;SDS011;10925;49.102;-0.370;2023-05-07T08:16:35;3.33;;;2.70;;
21527;SDS011;10925;49.102;-0.370;2023-05-07T08:19:02;4.28;;;2.38;;
21527;SDS011;10925;49.102;-0.370;2023-05-07T08:21:29;3.13;;;1.80;;
21527;SDS011;10925;49.102;-0.370;2023-05-07T08:23:59;3.10;;;1.83;;
21527;SDS011;10925;49.102;-0.370;2023-05-07T08:26:26;2.22;;;1.48;;
21527;SDS011;10925;49.102;-0.370;2023-05-07T08:28:53;4.00;;;1.98;;
21527;SDS011;10925;49.102;-0.370;2023-05-07T08:31:20;3.55;;;1.80;;
21527;SDS011;10925;49.102;-0.370;2023-05-07T08:33:47;2.80;;;1.50;;
21527;SDS011;10925;49.102;-0.370;2023-05-07T08:36:12;2.92;;;1.60;;
21527;SDS011;10925;49.102;-0.370;2023-05-07T08:38:38;2.45;;;1.75;;
21527;SDS011;10925;49.102;-0.370;2023-05-07T08:41:08;2.00;;;1.45;;
21527;SDS011;10925;49.102;-0.370;2023-05-07T08:43:36;4.70;;;2.00;;
21527;SDS011;10925;49.102;-0.370;2023-05-07T08:46:04;3.10;;;1.40;;
21527;SDS011;10925;49.102;-0.370;2023-05-07T08:48:35;2.88;;;1.75;;
21527;SDS011;10925;49.102;-0.370;2023-05-07T08:51:08;2.20;;;1.60;;
21527;SDS011;10925;49.102;-0.370;2023-05-07T08:53:35;2.95;;;1.70;;
21527;SDS011;10925;49.102;-0.370;2023-05-07T08:56:03;2.58;;;1.40;;
21527;SDS011;10925;49.102;-0.370;2023-05-07T08:58:30;2.22;;;1.50;;
21527;SDS011;10925;49.102;-0.370;2023-05-07T09:00:57;2.42;;;1.60;;
21527;SDS011;10925;49.102;-0.370;2023-05-07T09:03:23;3.17;;;1.50;;
21527;SDS011;10925;49.102;-0.370;2023-05-07T09:05:49;3.33;;;1.88;;
21527;SDS011;10925;49.102;-0.370;2023-05-07T09:08:15;4.05;;;1.65;;
21527;SDS011;10925;49.102;-0.370;2023-05-07T09:10:45;3.03;;;1.58;;
21527;SDS011;10925;49.102;-0.370;2023-05-07T09:13:11;4.22;;;2.20;;
21527;SDS011;10925;49.102;-0.370;2023-05-07T09:15:38;3.45;;;1.70;;
21527;SDS011;10925;49.102;-0.370;2023-05-07T09:18:05;2.80;;;2.17;;
21527;SDS011;10925;49.102;-0.370;2023-05-07T09:20:34;4.05;;;2.35;;
21527;SDS011;10925;49.102;-0.370;2023-05-07T09:23:03;2.53;;;1.70;;
21527;SDS011;10925;49.102;-0.370;2023-05-07T09:25:30;4.25;;;1.80;;
21527;SDS011;10925;49.102;-0.370;2023-05-07T09:27:58;3.08;;;1.92;;
21527;SDS011;10925;49.102;-0.370;2023-05-07T09:30:28;4.78;;;1.88;;
21527;SDS011;10925;49.102;-0.370;2023-05-07T09:32:58;3.58;;;1.90;;
21527;SDS011;10925;49.102;-0.370;2023-05-07T09:35:25;4.43;;;2.28;;
21527;SDS011;10925;49.102;-0.370;2023-05-07T09:37:58;3.95;;;1.65;;
21527;SDS011;10925;49.102;-0.370;2023-05-07T09:40:30;4.18;;;1.60;;
21527;SDS011;10925;49.102;-0.370;2023-05-07T09:43:09;1.70;;;1.60;;
21527;SDS011;10925;49.102;-0.370;2023-05-07T09:45:42;4.72;;;1.92;;
21527;SDS011;10925;49.102;-0.370;2023-05-07T09:48:09;2.70;;;1.85;;
21527;SDS011;10925;49.102;-0.370;2023-05-07T09:50:44;3.05;;;2.20;;
21527;SDS011;10925;49.102;-0.370;2023-05-07T09:58:03;3.53;;;2.20;;
21527;SDS011;10925;49.102;-0.370;2023-05-07T10:00:32;3.88;;;2.33;;
21527;SDS011;10925;49.102;-0.370;2023-05-07T10:03:07;3.60;;;2.50;;
21527;SDS011;10925;49.102;-0.370;2023-05-07T10:05:46;4.43;;;2.40;;
21527;SDS011;10925;49.102;-0.370;2023-05-07T10:08:13;5.25;;;3.13;;
21527;SDS011;10925;49.102;-0.370;2023-05-07T10:10:47;3.20;;;2.40;;
21527;SDS011;10925;49.102;-0.370;2023-05-07T10:13:22;4.18;;;2.05;;
21527;SDS011;10925;49.102;-0.370;2023-05-07T10:15:48;4.03;;;2.13;;
21527;SDS011;10925;49.102;-0.370;2023-05-07T10:18:16;3.75;;;2.00;;
21527;SDS011;10925;49.102;-0.370;2023-05-07T10:20:47;5.50;;;2.13;;
21527;SDS011;10925;49.102;-0.370;2023-05-07T10:23:14;4.55;;;2.60;;
21527;SDS011;10925;49.102;-0.370;2023-05-07T10:25:48;2.95;;;2.35;;
21527;SDS011;10925;49.102;-0.370;2023-05-07T10:28:20;2.47;;;2.13;;
21527;SDS011;10925;49.102;-0.370;2023-05-07T10:33:19;3.63;;;2.20;;
21527;SDS011;10925;49.102;-0.370;2023-05-07T10:35:47;4.07;;;2.50;;
21527;SDS011;10925;49.102;-0.370;2023-05-07T10:38:15;4.28;;;2.28;;
21527;SDS011;10925;49.102;-0.370;2023-05-07T10:40:44;3.83;;;2.42;;
21527;SDS011;10925;49.102;-0.370;2023-05-07T10:43:09;3.00;;;2.38;;
21527;SDS011;10925;49.102;-0.370;2023-05-07T10:48:32;2.75;;;2.10;;
21527;SDS011;10925;49.102;-0.370;2023-05-07T10:51:18;2.38;;;1.80;;
21527;SDS011;10925;49.102;-0.370;2023-05-07T10:53:46;5.55;;;1.65;;
21527;SDS011;10925;49.102;-0.370;2023-05-07T10:58:45;4.50;;;1.90;;
21527;SDS011;10925;49.102;-0.370;2023-05-07T11:01:10;2.95;;;1.50;;
21527;SDS011;10925;49.102;-0.370;2023-05-07T11:04:24;5.45;;;1.80;;
21527;SDS011;10925;49.102;-0.370;2023-05-07T11:06:31;3.80;;;1.70;;
21527;SDS011;10925;49.102;-0.370;2023-05-07T11:09:00;2.45;;;1.58;;
21527;SDS011;10925;49.102;-0.370;2023-05-07T11:11:48;2.97;;;1.60;;
21527;SDS011;10925;49.102;-0.370;2023-05-07T11:17:07;3.60;;;1.45;;
21527;SDS011;10925;49.102;-0.370;2023-05-07T11:25:17;4.15;;;1.73;;
21527;SDS011;10925;49.102;-0.370;2023-05-07T11:27:45;2.17;;;1.40;;
21527;SDS011;10925;49.102;-0.370;2023-05-07T11:30:16;3.65;;;1.38;;
21527;SDS011;10925;49.102;-0.370;2023-05-07T11:32:46;2.38;;;1.48;;
21527;SDS011;10925;49.102;-0.370;2023-05-07T11:35:12;3.33;;;1.80;;
21527;SDS011;10925;49.102;-0.370;2023-05-07T11:37:41;3.25;;;1.40;;
21527;SDS011;10925;49.102;-0.370;2023-05-07T11:40:08;1.98;;;1.20;;
21527;SDS011;10925;49.102;-0.370;2023-05-07T11:42:36;4.25;;;1.60;;
21527;SDS011;10925;49.102;-0.370;2023-05-07T11:45:02;3.35;;;1.65;;
21527;SDS011;10925;49.102;-0.370;2023-05-07T11:47:30;2.30;;;1.40;;
21527;SDS011;10925;49.102;-0.370;2023-05-07T11:50:02;2.72;;;1.73;;
21527;SDS011;10925;49.102;-0.370;2023-05-07T11:52:28;5.90;;;1.55;;
21527;SDS011;10925;49.102;-0.370;2023-05-07T11:54:56;4.05;;;1.70;;
21527;SDS011;10925;49.102;-0.370;2023-05-07T11:57:22;2.40;;;1.50;;
21527;SDS011;10925;49.102;-0.370;2023-05-07T11:59:55;3.30;;;1.40;;
21527;SDS011;10925;49.102;-0.370;2023-05-07T12:02:22;2.55;;;1.40;;
21527;SDS011;10925;49.102;-0.370;2023-05-07T12:04:48;2.85;;;1.30;;
21527;SDS011;10925;49.102;-0.370;2023-05-07T12:07:14;2.65;;;1.35;;
21527;SDS011;10925;49.102;-0.370;2023-05-07T12:09:41;4.20;;;1.60;;
21527;SDS011;10925;49.102;-0.370;2023-05-07T12:12:08;2.22;;;1.50;;
21527;SDS011;10925;49.102;-0.370;2023-05-07T12:14:38;3.25;;;1.80;;
21527;SDS011;10925;49.102;-0.370;2023-05-07T12:17:09;4.20;;;1.85;;
21527;SDS011;10925;49.102;-0.370;2023-05-07T12:19:37;3.90;;;1.50;;
21527;SDS011;10925;49.102;-0.370;2023-05-07T12:22:05;3.35;;;1.58;;
21527;SDS011;10925;49.102;-0.370;2023-05-07T12:24:44;4.07;;;1.90;;
21527;SDS011;10925;49.102;-0.370;2023-05-07T12:27:12;2.08;;;1.55;;
21527;SDS011;10925;49.102;-0.370;2023-05-07T12:29:39;4.95;;;1.98;;
21527;SDS011;10925;49.102;-0.370;2023-05-07T12:32:07;4.05;;;2.10;;
21527;SDS011;10925;49.102;-0.370;2023-05-07T12:34:39;4.38;;;2.10;;
21527;SDS011;10925;49.102;-0.370;2023-05-07T12:37:11;2.67;;;1.85;;
21527;SDS011;10925;49.102;-0.370;2023-05-07T12:39:48;6.10;;;1.70;;
21527;SDS011;10925;49.102;-0.370;2023-05-07T12:42:15;5.18;;;2.20;;
21527;SDS011;10925;49.102;-0.370;2023-05-07T12:44:59;3.50;;;1.88;;
21527;SDS011;10925;49.102;-0.370;2023-05-07T12:47:25;4.53;;;1.92;;
21527;SDS011;10925;49.102;-0.370;2023-05-07T12:49:52;4.07;;;2.50;;
21527;SDS011;10925;49.102;-0.370;2023-05-07T12:52:20;3.55;;;2.50;;
21527;SDS011;10925;49.102;-0.370;2023-05-07T12:57:38;4.18;;;2.55;;
21527;SDS011;10925;49.102;-0.370;2023-05-07T13:00:06;4.38;;;2.58;;
21527;SDS011;10925;49.102;-0.370;2023-05-07T13:02:33;3.67;;;2.63;;
21527;SDS011;10925;49.102;-0.370;2023-05-07T13:05:00;3.33;;;2.10;;
21527;SDS011;10925;49.102;-0.370;2023-05-07T13:07:25;4.97;;;2.70;;
21527;SDS011;10925;49.102;-0.370;2023-05-07T13:09:54;3.60;;;2.25;;
21527;SDS011;10925;49.102;-0.370;2023-05-07T13:12:19;4.93;;;2.70;;
21527;SDS011;10925;49.102;-0.370;2023-05-07T13:14:46;6.05;;;2.90;;
21527;SDS011;10925;49.102;-0.370;2023-05-07T13:17:13;4.07;;;2.70;;
21527;SDS011;10925;49.102;-0.370;2023-05-07T13:19:39;4.72;;;2.15;;
21527;SDS011;10925;49.102;-0.370;2023-05-07T13:22:06;3.97;;;2.05;;
21527;SDS011;10925;49.102;-0.370;2023-05-07T13:24:33;7.05;;;2.75;;
21527;SDS011;10925;49.102;-0.370;2023-05-07T13:26:58;3.30;;;2.08;;
21527;SDS011;10925;49.102;-0.370;2023-05-07T13:29:25;4.88;;;2.20;;
21527;SDS011;10925;49.102;-0.370;2023-05-07T13:31:56;4.25;;;2.20;;
21527;SDS011;10925;49.102;-0.370;2023-05-07T13:34:23;3.72;;;2.20;;
21527;SDS011;10925;49.102;-0.370;2023-05-07T13:36:50;3.38;;;1.70;;
21527;SDS011;10925;49.102;-0.370;2023-05-07T13:39:17;3.92;;;2.15;;
21527;SDS011;10925;49.102;-0.370;2023-05-07T13:41:42;4.25;;;2.38;;
21527;SDS011;10925;49.102;-0.370;2023-05-07T13:44:08;4.97;;;2.10;;
21527;SDS011;10925;49.102;-0.370;2023-05-07T13:46:34;3.08;;;1.85;;
21527;SDS011;10925;49.102;-0.370;2023-05-07T13:49:01;9.80;;;4.70;;
21527;SDS011;10925;49.102;-0.370;2023-05-07T13:51:28;10.27;;;5.10;;
21527;SDS011;10925;49.102;-0.370;2023-05-07T13:53:55;7.28;;;5.07;;
21527;SDS011;10925;49.102;-0.370;2023-05-07T13:56:21;12.02;;;5.78;;
21527;SDS011;10925;49.102;-0.370;2023-05-07T13:58:49;10.57;;;6.55;;
21527;SDS011;10925;49.102;-0.370;2023-05-07T14:01:25;9.48;;;6.88;;
21527;SDS011;10925;49.102;-0.370;2023-05-07T14:03:51;9.18;;;5.10;;
21527;SDS011;10925;49.102;-0.370;2023-05-07T14:06:18;13.70;;;8.35;;
21527;SDS011;10925;49.102;-0.370;2023-05-07T14:08:45;12.23;;;8.93;;
21527;SDS011;10925;49.102;-0.370;2023-05-07T14:11:11;14.65;;;9.85;;
21527;SDS011;10925;49.102;-0.370;2023-05-07T14:13:38;15.70;;;10.15;;
21527;SDS011;10925;49.102;-0.370;2023-05-07T14:16:05;14.05;;;9.73;;
21527;SDS011;10925;49.102;-0.370;2023-05-07T14:18:30;14.88;;;10.70;;
21527;SDS011;10925;49.102;-0.370;2023-05-07T14:20:56;19.10;;;11.35;;
21527;SDS011;10925;49.102;-0.370;2023-05-07T14:23:21;16.85;;;10.88;;
21527;SDS011;10925;49.102;-0.370;2023-05-07T14:25:54;15.90;;;11.32;;
21527;SDS011;10925;49.102;-0.370;2023-05-07T14:28:22;18.40;;;13.25;;
21527;SDS011;10925;49.102;-0.370;2023-05-07T14:30:49;17.77;;;12.43;;
21527;SDS011;10925;49.102;-0.370;2023-05-07T14:33:15;19.75;;;12.30;;
21527;SDS011;10925;49.102;-0.370;2023-05-07T14:35:41;24.38;;;13.27;;
21527;SDS011;10925;49.102;-0.370;2023-05-07T14:38:11;22.35;;;13.75;;
21527;SDS011;10925;49.102;-0.370;2023-05-07T14:40:38;22.38;;;13.70;;
21527;SDS011;10925;49.102;-0.370;2023-05-07T14:43:03;21.92;;;15.30;;
21527;SDS011;10925;49.102;-0.370;2023-05-07T14:45:30;19.05;;;13.73;;
21527;SDS011;10925;49.102;-0.370;2023-05-07T14:47:57;23.00;;;15.02;;
21527;SDS011;10925;49.102;-0.370;2023-05-07T14:50:23;21.67;;;14.15;;
21527;SDS011;10925;49.102;-0.370;2023-05-07T14:52:50;22.63;;;13.68;;
21527;SDS011;10925;49.102;-0.370;2023-05-07T14:55:17;21.98;;;15.93;;
21527;SDS011;10925;49.102;-0.370;2023-05-07T14:57:42;22.02;;;13.93;;
21527;SDS011;10925;49.102;-0.370;2023-05-07T15:00:09;24.58;;;15.07;;
21527;SDS011;10925;49.102;-0.370;2023-05-07T15:02:37;26.40;;;14.60;;
21527;SDS011;10925;49.102;-0.370;2023-05-07T15:05:04;26.27;;;17.58;;